Time;durP1;ratioP1;P1;durP2;ratioP2;P2;SDS_P1;SDS_P2;PMS_P1;PMS_P2;Temp;Humidity;BMP_temperature;BMP_pressure;BME280_temperature;BME280_humidity;BME280_pressure;Samples;Min_cycle;Max_cycle;Signal;HPM_P1;HPM_P2
2022/02/03 00:04:20;;;;;;;11.63;7.68;;;8.30;99.90;;;;;;5116514;28;20404;-68
2022/02/03 00:06:54;;;;;;;12.73;7.68;;;8.30;99.90;;;;;;5116617;28;20047;-68
2022/02/03 00:23:04;;;;;;;11.57;7.38;;;8.30;99.90;;;;;;5116219;28;20020;-68
2022/02/03 00:25:41;;;;;;;13.48;7.50;;;8.30;99.90;;;;;;5116414;28;20023;-68
2022/02/03 00:28:18;;;;;;;;;;;8.30;99.90;;;;;;5116772;27;20043;-68
2022/02/03 00:35:56;;;;;;;11.55;7.70;;;8.40;99.90;;;;;;5115915;28;20024;-67
2022/02/03 00:49:11;;;;;;;8.80;5.93;;;8.40;99.90;;;;;;5116510;28;20035;-69
2022/02/03 00:51:41;;;;;;;7.03;5.60;;;8.50;99.90;;;;;;5115894;28;20023;-69
2022/02/03 00:54:10;;;;;;;11.52;5.78;;;8.50;99.90;;;;;;5115691;28;20019;-68
2022/02/03 00:56:38;;;;;;;8.82;5.63;;;8.50;99.90;;;;;;5115734;28;20019;-69
2022/02/03 00:59:08;;;;;;;9.15;5.63;;;8.40;99.90;;;;;;5114290;28;20085;-68
2022/02/03 01:01:40;;;;;;;9.85;6.13;;;8.50;99.90;;;;;;5115688;28;20455;-69
2022/02/03 01:04:10;;;;;;;10.43;6.22;;;8.50;99.90;;;;;;5114500;28;20023;-69
2022/02/03 01:06:42;;;;;;;8.15;5.60;;;8.50;99.90;;;;;;5115456;28;20098;-69
2022/02/03 01:09:09;;;;;;;9.18;6.30;;;8.40;99.90;;;;;;5114176;28;20391;-69
2022/02/03 01:11:40;;;;;;;;;;;8.40;99.90;;;;;;5114499;28;20492;-68
2022/02/03 01:44:12;;;;;;;10.93;6.65;;;8.30;99.90;;;;;;5114458;28;20038;-68
2022/02/03 01:46:52;;;;;;;11.15;6.85;;;8.40;99.90;;;;;;5115011;28;20391;-68
2022/02/03 01:49:38;;;;;;;11.02;7.20;;;8.40;99.90;;;;;;5113983;28;20032;-68
2022/02/03 01:52:10;;;;;;;9.90;6.68;;;8.40;99.90;;;;;;5115477;28;20031;-69
2022/02/03 01:54:37;;;;;;;8.55;6.07;;;8.40;99.90;;;;;;5114218;28;20364;-70
2022/02/03 01:57:10;;;;;;;10.80;6.45;;;8.40;99.90;;;;;;5114780;28;20107;-68
2022/02/03 01:59:37;;;;;;;10.73;6.72;;;8.40;99.90;;;;;;5114737;28;20614;-69
2022/02/03 02:02:06;;;;;;;10.27;6.47;;;8.40;99.90;;;;;;5114864;28;20028;-69
2022/02/03 02:05:05;;;;;;;9.30;6.78;;;8.40;99.90;;;;;;5115082;28;20015;-69
2022/02/03 02:07:52;;;;;;;10.23;7.10;;;8.40;99.90;;;;;;5114658;28;20066;-69
2022/02/03 02:11:31;;;;;;;9.52;6.03;;;8.40;99.90;;;;;;5113030;28;20042;-69
2022/02/03 02:14:05;;;;;;;9.15;6.55;;;8.40;99.90;;;;;;5112080;28;20032;-70
2022/02/03 02:19:25;;;;;;;8.65;5.90;;;8.40;99.90;;;;;;5114907;28;20035;-70
2022/02/03 02:38:59;;;;;;;;;;;8.50;99.90;;;;;;5114936;28;20145;-68
2022/02/03 02:44:48;;;;;;;11.35;6.72;;;8.50;99.90;;;;;;5114149;28;20027;-69
2022/02/03 02:47:51;;;;;;;11.13;6.57;;;8.50;99.90;;;;;;5113994;28;20062;-68
2022/02/03 02:50:35;;;;;;;10.55;6.82;;;8.50;99.90;;;;;;5114003;28;20473;-68
2022/02/03 02:53:15;;;;;;;10.57;7.10;;;8.50;99.90;;;;;;5113419;28;20032;-68
2022/02/03 02:58:47;;;;;;;10.93;6.90;;;8.40;99.90;;;;;;5113683;28;20491;-69
2022/02/03 03:29:30;;;;;;;12.23;6.60;;;8.40;99.90;;;;;;5113607;28;20081;-68
2022/02/03 03:32:20;;;;;;;14.30;7.70;;;8.30;99.90;;;;;;5112105;28;20476;-69
2022/02/03 03:35:08;;;;;;;10.77;6.43;;;8.30;99.90;;;;;;5113564;28;20083;-68
2022/02/03 03:37:46;;;;;;;;;;;8.40;99.90;;;;;;5113791;28;20031;-68
2022/02/03 03:40:13;;;;;;;11.80;6.93;;;8.30;99.90;;;;;;5113750;28;19943;-68
2022/02/03 03:42:44;;;;;;;9.50;6.20;;;8.40;99.90;;;;;;5113533;28;20024;-69
2022/02/03 03:45:12;;;;;;;12.00;7.20;;;8.40;99.90;;;;;;5113952;28;20077;-68
2022/02/03 03:47:40;;;;;;;11.50;7.18;;;8.40;99.90;;;;;;5113575;28;20432;-68
2022/02/03 03:50:14;;;;;;;9.63;6.93;;;8.40;99.90;;;;;;5112290;28;20031;-68
2022/02/03 03:52:55;;;;;;;9.80;6.57;;;8.40;99.90;;;;;;5112195;28;20557;-69
2022/02/03 04:28:58;;;;;;;10.75;7.00;;;8.50;99.90;;;;;;5113804;28;20031;-68
2022/02/03 04:33:40;;;;;;;14.93;8.90;;;8.30;99.90;;;;;;5116109;28;20046;-69
2022/02/03 04:51:23;;;;;;;17.45;10.00;;;8.20;99.90;;;;;;5073129;28;20102;-68
2022/02/03 04:54:35;;;;;;;13.98;8.45;;;8.20;99.90;;;;;;5115517;28;20372;-68
2022/02/03 04:57:49;;;;;;;28.50;14.95;;;8.20;99.90;;;;;;5116256;28;20032;-68
2022/02/03 05:03:51;;;;;;;13.15;9.00;;;8.20;99.90;;;;;;5115906;28;20085;-68
2022/02/03 05:10:06;;;;;;;24.92;17.60;;;8.20;99.90;;;;;;5115955;28;20076;-69
2022/02/03 05:18:36;;;;;;;17.70;12.75;;;8.10;99.90;;;;;;5116526;28;20106;-68
2022/02/03 05:42:08;;;;;;;15.93;9.70;;;8.00;99.90;;;;;;5124523;28;20031;-69
2022/02/03 06:08:36;;;;;;;13.02;8.95;;;7.90;99.90;;;;;;5114715;28;20020;-73
2022/02/03 06:14:02;;;;;;;18.52;9.27;;;7.90;99.90;;;;;;5114487;28;20034;-73
2022/02/03 06:21:32;;;;;;;16.38;9.70;;;7.90;99.90;;;;;;5115684;28;20039;-73
2022/02/03 06:24:16;;;;;;;16.30;9.45;;;7.90;99.90;;;;;;5117869;28;20490;-72
2022/02/03 06:29:30;;;;;;;19.05;10.23;;;7.90;99.90;;;;;;5115254;28;20061;-74
2022/02/03 06:31:56;;;;;;;17.05;10.07;;;7.90;99.90;;;;;;5112730;28;20020;-73
2022/02/03 06:34:22;;;;;;;16.50;10.10;;;7.80;99.90;;;;;;5114245;28;20031;-70
2022/02/03 06:36:50;;;;;;;16.10;10.07;;;7.80;99.90;;;;;;5113760;28;20149;-71
2022/02/03 06:39:23;;;;;;;16.58;10.45;;;7.70;99.90;;;;;;5113893;28;20023;-71
2022/02/03 06:41:53;;;;;;;20.17;11.00;;;7.70;99.90;;;;;;5113935;28;20109;-68
2022/02/03 06:44:20;;;;;;;15.70;10.27;;;7.70;99.90;;;;;;5113722;28;20020;-72
2022/02/03 06:46:50;;;;;;;18.58;10.45;;;7.80;99.90;;;;;;5114274;28;20065;-73
2022/02/03 06:49:31;;;;;;;18.27;10.80;;;7.70;99.90;;;;;;5118398;28;20387;-73
2022/02/03 06:52:05;;;;;;;16.20;10.10;;;7.70;99.90;;;;;;5116986;28;20099;-74
2022/02/03 06:54:43;;;;;;;18.08;10.48;;;7.70;99.90;;;;;;5114573;28;20106;-69
2022/02/03 06:57:16;;;;;;;16.48;9.75;;;7.70;99.90;;;;;;5112970;28;20116;-70
2022/02/03 06:59:51;;;;;;;17.10;10.52;;;7.70;99.90;;;;;;5113871;28;20103;-71
2022/02/03 07:02:18;;;;;;;20.02;11.35;;;7.70;99.90;;;;;;5112307;28;20024;-75
2022/02/03 07:04:45;;;;;;;17.88;10.98;;;7.90;99.90;;;;;;5112625;28;20114;-75
2022/02/03 07:07:16;;;;;;;20.45;11.27;;;7.90;99.90;;;;;;5112614;28;20020;-71
2022/02/03 07:09:44;;;;;;;19.48;10.65;;;7.90;99.90;;;;;;5113560;28;20093;-73
2022/02/03 07:12:10;;;;;;;18.52;11.20;;;7.90;99.90;;;;;;5113552;28;20019;-72
2022/02/03 07:14:36;;;;;;;22.48;12.07;;;7.90;99.90;;;;;;5113333;28;20480;-69
2022/02/03 07:17:04;;;;;;;21.45;12.10;;;7.90;99.90;;;;;;5111944;28;20028;-73
2022/02/03 07:19:33;;;;;;;19.50;11.50;;;7.90;99.90;;;;;;5114066;28;20023;-69
2022/02/03 07:21:59;;;;;;;20.20;12.00;;;7.90;99.90;;;;;;5112633;28;20062;-73
2022/02/03 07:24:25;;;;;;;19.83;12.13;;;7.90;99.90;;;;;;5112466;28;20035;-73
2022/02/03 07:26:51;;;;;;;19.70;12.37;;;7.90;99.90;;;;;;5113249;28;20088;-71
2022/02/03 07:29:16;;;;;;;24.92;12.88;;;7.90;99.90;;;;;;5111689;28;20016;-73
2022/02/03 07:31:42;;;;;;;19.17;11.37;;;8.00;99.90;;;;;;5112173;28;20104;-71
2022/02/03 07:34:13;;;;;;;20.13;11.57;;;7.90;99.90;;;;;;5111938;28;20031;-71
2022/02/03 07:36:39;;;;;;;19.10;11.98;;;8.00;99.90;;;;;;5111851;28;20030;-71
2022/02/03 07:39:06;;;;;;;20.38;11.52;;;8.00;99.90;;;;;;5113439;28;20098;-69
2022/02/03 07:41:32;;;;;;;20.58;12.77;;;8.20;99.90;;;;;;5112112;28;20443;-67
2022/02/03 07:43:58;;;;;;;20.00;12.40;;;8.10;99.90;;;;;;5117201;28;20573;-68
2022/02/03 07:46:24;;;;;;;22.10;12.20;;;8.10;99.90;;;;;;5118112;28;20035;-68
2022/02/03 07:48:52;;;;;;;22.33;12.27;;;8.00;99.90;;;;;;5119458;28;20027;-68
2022/02/03 07:51:18;;;;;;;17.65;10.95;;;8.00;99.90;;;;;;5117358;28;20332;-68
2022/02/03 07:53:44;;;;;;;22.77;12.02;;;8.00;99.90;;;;;;5117106;28;20027;-68
2022/02/03 07:56:09;;;;;;;21.33;11.30;;;8.00;99.90;;;;;;5116999;28;20039;-69
2022/02/03 07:58:35;;;;;;;20.03;12.60;;;8.10;99.90;;;;;;5116964;28;20101;-69
2022/02/03 08:01:00;;;;;;;22.97;12.07;;;8.10;99.90;;;;;;5117324;28;20380;-69
2022/02/03 08:03:26;;;;;;;17.57;11.10;;;8.10;99.90;;;;;;5116991;28;20020;-68
2022/02/03 08:05:59;;;;;;;17.52;10.60;;;8.10;99.90;;;;;;5116928;28;20020;-68
2022/02/03 08:08:45;;;;;;;17.23;11.07;;;8.20;99.90;;;;;;5117040;28;20023;-68
2022/02/03 08:11:16;;;;;;;16.98;10.48;;;8.10;99.90;;;;;;5117037;28;20016;-68
2022/02/03 08:14:09;;;;;;;16.17;10.80;;;8.20;99.90;;;;;;5116725;28;20015;-68
2022/02/03 08:16:36;;;;;;;18.63;10.93;;;8.30;99.90;;;;;;5131900;28;20027;-68
2022/02/03 08:22:05;;;;;;;17.30;10.15;;;8.20;99.90;;;;;;5107815;28;20496;-69
2022/02/03 08:24:42;;;;;;;16.30;10.00;;;8.30;99.90;;;;;;5115329;28;20016;-69
2022/02/03 08:30:05;;;;;;;13.63;9.43;;;8.40;99.90;;;;;;5116660;28;20049;-66
2022/02/03 08:32:25;;;;;;;17.38;10.05;;;8.40;99.90;;;;;;5116043;28;20051;-70
2022/02/03 08:37:21;;;;;;;14.57;9.18;;;8.40;99.90;;;;;;5116528;28;20468;-71
2022/02/03 08:40:12;;;;;;;12.57;8.98;;;8.50;99.90;;;;;;5116195;28;20020;-70
2022/02/03 08:42:36;;;;;;;15.50;9.65;;;8.50;99.90;;;;;;5115667;28;20027;-70
2022/02/03 08:45:02;;;;;;;13.43;9.05;;;8.50;99.90;;;;;;5114846;28;20020;-71
2022/02/03 08:47:27;;;;;;;12.73;8.77;;;8.60;99.90;;;;;;5114633;28;20038;-69
2022/02/03 08:49:53;;;;;;;13.87;8.63;;;8.60;99.90;;;;;;5116049;28;20388;-69
2022/02/03 08:52:22;;;;;;;13.90;9.00;;;8.70;99.90;;;;;;5115695;28;20119;-68
2022/02/03 08:55:00;;;;;;;15.20;9.05;;;8.70;99.90;;;;;;5114011;28;20285;-68
2022/02/03 08:57:41;;;;;;;13.27;8.82;;;8.80;99.90;;;;;;5114222;28;20504;-68
2022/02/03 09:38:04;;;;;;;11.15;7.20;;;9.10;99.90;;;;;;5115148;28;20035;-68
2022/02/03 09:40:52;;;;;;;9.90;6.75;;;9.10;99.90;;;;;;5115257;28;20015;-68
2022/02/03 09:51:56;;;;;;;11.55;5.78;;;9.40;99.90;;;;;;5115075;28;20088;-68
2022/02/03 09:59:59;;;;;;;7.82;5.55;;;9.60;99.90;;;;;;5114550;28;20024;-69
2022/02/03 10:02:29;;;;;;;7.75;5.32;;;9.60;99.90;;;;;;5114568;28;20016;-67
2022/02/03 10:04:58;;;;;;;7.28;5.65;;;9.70;99.90;;;;;;5114353;28;20024;-68
2022/02/03 10:07:30;;;;;;;8.70;5.88;;;9.70;99.90;;;;;;5115000;28;20515;-68
2022/02/03 10:09:58;;;;;;;7.75;5.38;;;9.60;99.90;;;;;;5114598;28;20038;-67
2022/02/03 10:12:31;;;;;;;6.43;4.72;;;9.70;99.90;;;;;;5114309;28;20186;-68
2022/02/03 10:14:57;;;;;;;7.88;4.30;;;9.80;99.90;;;;;;5114578;28;20023;-68
2022/02/03 10:17:35;;;;;;;6.93;4.68;;;9.80;99.90;;;;;;5113195;28;20091;-68
2022/02/03 10:20:04;;;;;;;5.63;4.40;;;9.90;99.90;;;;;;5114635;28;20011;-68
2022/02/03 10:22:30;;;;;;;6.68;4.32;;;10.00;99.90;;;;;;5112544;28;20572;-68
2022/02/03 10:25:10;;;;;;;6.40;4.25;;;10.00;99.90;;;;;;5114499;28;20051;-68
2022/02/03 10:27:39;;;;;;;6.03;4.38;;;10.00;99.90;;;;;;5114355;28;20028;-68
2022/02/03 10:30:28;;;;;;;5.55;3.83;;;10.10;99.90;;;;;;5112645;28;20496;-68
2022/02/03 10:32:54;;;;;;;5.18;3.80;;;10.20;99.90;;;;;;5112620;28;20031;-68
2022/02/03 10:35:43;;;;;;;6.20;3.58;;;10.30;99.90;;;;;;5113723;28;20552;-68
2022/02/03 10:44:17;;;;;;;5.00;3.50;;;10.40;99.90;;;;;;5114320;28;20085;-68
2022/02/03 10:47:12;;;;;;;5.13;3.65;;;10.50;99.90;;;;;;5113452;28;20023;-68
2022/02/03 10:58:04;;;;;;;2.97;2.60;;;10.60;99.90;;;;;;5115155;28;20034;-68
2022/02/03 11:03:29;;;;;;;5.78;3.35;;;10.60;99.90;;;;;;5082202;28;20031;-68
2022/02/03 11:09:21;;;;;;;3.85;2.30;;;10.50;99.90;;;;;;5113959;28;20034;-68
2022/02/03 11:11:40;;;;;;;5.93;3.33;;;10.60;99.90;;;;;;5110712;28;20058;-68
2022/02/03 11:14:08;;;;;;;4.90;2.90;;;10.70;99.90;;;;;;5112586;28;20080;-68
2022/02/03 11:16:39;;;;;;;6.82;3.75;;;10.80;99.90;;;;;;5115040;28;20024;-68
2022/02/03 11:19:07;;;;;;;4.97;3.10;;;10.80;99.90;;;;;;5119025;28;20479;-68
2022/02/03 11:21:34;;;;;;;5.60;3.35;;;10.90;99.90;;;;;;5118539;28;20028;-68
2022/02/03 11:24:12;;;;;;;5.28;3.05;;;10.80;99.90;;;;;;5120548;28;20019;-68
2022/02/03 11:55:14;;;;;;;2.70;2.03;;;11.10;99.90;;;;;;5117096;28;20057;-68
2022/02/03 12:21:49;;;;;;;3.88;2.90;;;11.10;99.90;;;;;;5116758;27;20436;-67
2022/02/03 12:29:36;;;;;;;2.97;1.67;;;11.20;99.90;;;;;;5115826;28;20015;-67
2022/02/03 12:40:00;;;;;;;3.30;1.20;;;11.20;99.90;;;;;;5116268;28;20022;-68
2022/02/03 12:45:16;;;;;;;2.65;1.30;;;11.10;99.90;;;;;;5116624;28;20456;-67
2022/02/03 12:47:47;;;;;;;5.65;1.80;;;11.20;99.90;;;;;;5115956;28;20444;-67
2022/02/03 12:50:22;;;;;;;2.92;1.65;;;11.20;99.90;;;;;;5116164;28;20043;-67
2022/02/03 12:52:48;;;;;;;2.22;1.45;;;11.10;99.90;;;;;;5115525;27;20395;-67
2022/02/03 12:55:33;;;;;;;3.40;1.60;;;11.10;99.90;;;;;;5116010;28;20076;-67
2022/02/03 12:58:03;;;;;;;3.47;1.70;;;11.00;99.90;;;;;;5115865;28;20499;-67
2022/02/03 13:00:41;;;;;;;2.45;1.40;;;11.00;99.90;;;;;;5115757;27;20054;-67
2022/02/03 13:03:09;;;;;;;1.80;1.30;;;11.00;99.90;;;;;;5115541;28;20107;-67
2022/02/03 13:05:37;;;;;;;3.30;1.70;;;10.90;99.90;;;;;;5116522;28;20494;-67
2022/02/03 13:08:07;;;;;;;2.67;1.50;;;10.90;99.90;;;;;;5115774;28;20024;-67
2022/02/03 13:10:36;;;;;;;4.57;1.60;;;11.00;99.90;;;;;;5116418;28;20058;-67
2022/02/03 13:13:23;;;;;;;2.60;1.40;;;10.90;99.90;;;;;;5117058;28;20015;-68
2022/02/03 13:15:49;;;;;;;2.00;1.33;;;11.00;99.90;;;;;;5117122;28;20028;-67
2022/02/03 13:18:26;;;;;;;1.88;1.30;;;11.00;99.90;;;;;;5116717;28;20043;-67
2022/02/03 13:21:07;;;;;;;1.90;1.42;;;11.00;99.90;;;;;;5115258;28;20027;-67
2022/02/03 13:23:37;;;;;;;2.92;1.63;;;10.90;99.90;;;;;;5116642;28;20030;-67
2022/02/03 13:26:08;;;;;;;2.85;1.30;;;10.90;99.90;;;;;;5116419;28;20425;-67
2022/02/03 13:28:49;;;;;;;2.55;1.50;;;10.90;99.90;;;;;;5116569;28;20019;-67
2022/02/03 13:31:34;;;;;;;3.42;1.77;;;10.90;99.90;;;;;;5115829;28;20083;-67
2022/02/03 13:34:14;;;;;;;2.53;1.48;;;10.80;99.90;;;;;;5116542;28;20055;-68
2022/02/03 13:36:47;;;;;;;3.47;1.90;;;10.90;99.90;;;;;;5117370;28;20035;-67
2022/02/03 13:39:29;;;;;;;3.65;1.83;;;10.80;99.90;;;;;;5115570;28;20046;-67
2022/02/03 13:42:10;;;;;;;2.40;1.90;;;10.90;99.90;;;;;;5115971;28;20099;-68
2022/02/03 13:44:36;;;;;;;4.93;1.75;;;10.90;99.90;;;;;;5114000;28;20030;-67
2022/02/03 13:47:18;;;;;;;4.57;2.15;;;11.00;99.90;;;;;;5115326;28;20016;-68
2022/02/03 13:49:58;;;;;;;4.75;2.65;;;10.90;99.90;;;;;;5113804;28;20042;-73
2022/02/03 13:52:33;;;;;;;6.05;3.28;;;10.90;99.90;;;;;;5115569;28;20472;-74
2022/02/03 14:14:40;;;;;;;4.60;2.25;;;10.70;99.90;;;;;;5114722;28;20486;-70
2022/02/03 14:20:37;;;;;;;7.30;2.40;;;10.80;99.90;;;;;;5090748;28;20028;-69
2022/02/03 14:26:51;;;;;;;8.85;3.33;;;10.70;99.90;;;;;;5113946;28;20087;-69
2022/02/03 14:28:34;;;;;;;6.40;4.20;;;10.60;99.90;;;;;;5116058;28;20517;-69
2022/02/03 14:31:04;;;;;;;5.38;2.40;;;10.50;99.90;;;;;;5115722;28;20018;-70
2022/02/03 14:33:42;;;;;;;2.80;1.70;;;10.50;99.90;;;;;;5113299;28;20103;-69
2022/02/03 14:36:14;;;;;;;6.15;2.08;;;10.40;99.90;;;;;;5112968;28;20028;-68
2022/02/03 14:38:47;;;;;;;3.25;2.13;;;10.40;99.90;;;;;;5113346;28;20023;-68
2022/02/03 14:41:31;;;;;;;5.55;2.33;;;10.40;99.90;;;;;;5113975;28;20379;-67
2022/02/03 14:43:59;;;;;;;7.60;4.60;;;10.40;99.90;;;;;;5114192;28;20012;-68
2022/02/03 14:46:26;;;;;;;3.42;2.17;;;10.40;99.90;;;;;;5114644;28;20043;-72
2022/02/03 14:48:51;;;;;;;3.22;2.30;;;10.30;99.90;;;;;;5112714;28;20081;-69
2022/02/03 14:51:22;;;;;;;5.97;3.10;;;10.30;99.90;;;;;;5112377;28;20019;-68
2022/02/03 14:53:54;;;;;;;4.25;2.50;;;10.20;99.90;;;;;;5113607;28;20032;-72
2022/02/03 14:59:04;;;;;;;10.25;4.60;;;10.20;99.90;;;;;;5114283;28;20035;-70
2022/02/03 15:01:32;;;;;;;5.15;3.08;;;10.20;99.90;;;;;;5114092;28;20072;-69
2022/02/03 15:04:00;;;;;;;5.45;3.28;;;10.20;99.90;;;;;;5113555;28;20075;-69
2022/02/03 15:06:28;;;;;;;17.48;8.70;;;10.10;99.90;;;;;;5112353;28;20074;-70
2022/02/03 15:11:54;;;;;;;4.63;3.28;;;10.00;99.90;;;;;;5114097;28;20031;-68
2022/02/03 15:14:20;;;;;;;3.35;2.38;;;10.00;99.90;;;;;;5113930;28;20524;-68
2022/02/03 15:16:46;;;;;;;6.60;3.33;;;10.00;99.90;;;;;;5114360;28;20058;-69
2022/02/03 15:19:12;;;;;;;6.20;2.78;;;10.00;99.90;;;;;;5113745;28;20024;-69
2022/02/03 15:21:38;;;;;;;3.23;2.07;;;10.00;99.90;;;;;;5113143;28;20023;-68
2022/02/03 15:24:05;;;;;;;3.97;2.25;;;9.90;99.90;;;;;;5112855;28;20024;-71
2022/02/03 15:26:30;;;;;;;5.10;1.63;;;9.90;99.90;;;;;;5113852;28;20020;-69
2022/02/03 15:28:57;;;;;;;4.03;1.70;;;9.80;99.90;;;;;;5113716;28;20038;-72
2022/02/03 15:31:29;;;;;;;2.83;1.48;;;9.80;99.90;;;;;;5111710;28;20265;-70
2022/02/03 15:34:00;;;;;;;3.78;1.85;;;9.80;99.90;;;;;;5114181;28;20039;-77
2022/02/03 15:36:25;;;;;;;4.43;1.88;;;9.70;99.90;;;;;;5115650;28;20028;-76
2022/02/03 15:38:51;;;;;;;3.83;1.60;;;9.70;99.90;;;;;;5112564;28;20031;-76
2022/02/03 15:41:26;;;;;;;6.88;1.80;;;9.70;99.90;;;;;;5114714;28;20019;-71
2022/02/03 15:43:53;;;;;;;3.80;1.40;;;9.60;99.90;;;;;;5113276;28;20047;-69
2022/02/03 15:46:21;;;;;;;3.08;2.08;;;9.60;99.90;;;;;;5111746;28;20023;-70
2022/02/03 15:49:10;;;;;;;2.55;1.77;;;9.50;99.90;;;;;;5113423;28;20069;-70
2022/02/03 15:56:57;;;;;;;3.83;1.42;;;9.50;99.90;;;;;;5116367;28;20035;-69
2022/02/03 16:18:16;;;;;;;1.80;1.27;;;9.30;99.90;;;;;;5116273;28;20020;-68
2022/02/03 16:20:51;;;;;;;3.03;1.70;;;9.30;99.90;;;;;;5116363;28;20473;-68
2022/02/03 16:43:11;;;;;;;3.10;1.90;;;9.20;99.90;;;;;;5116506;28;20039;-69
2022/02/03 16:52:59;;;;;;;4.83;2.40;;;9.10;99.90;;;;;;5115596;28;20027;-68
2022/02/03 16:55:30;;;;;;;3.15;1.92;;;9.10;99.90;;;;;;5114143;28;20024;-66
2022/02/03 16:57:57;;;;;;;4.40;1.83;;;9.10;99.90;;;;;;5116037;28;20031;-69
2022/02/03 17:00:23;;;;;;;;;;;9.00;99.90;;;;;;5114696;28;20469;-70
2022/02/03 17:02:51;;;;;;;4.35;2.35;;;9.00;99.90;;;;;;5114166;28;19903;-71
2022/02/03 17:05:17;;;;;;;7.20;2.60;;;9.10;99.90;;;;;;5116095;28;20096;-71
2022/02/03 17:07:42;;;;;;;3.23;2.40;;;9.10;99.90;;;;;;5116100;28;20027;-71
2022/02/03 17:10:09;;;;;;;3.97;2.50;;;9.10;99.90;;;;;;5115874;28;20106;-68
2022/02/03 17:12:35;;;;;;;;;;;9.00;99.90;;;;;;5116019;28;20070;-69
2022/02/03 17:15:00;;;;;;;7.20;2.20;;;9.00;99.90;;;;;;5115290;28;20339;-68
2022/02/03 17:17:26;;;;;;;7.20;2.80;;;9.00;99.90;;;;;;5115471;28;20030;-71
2022/02/03 17:19:52;;;;;;;3.40;2.33;;;9.00;99.90;;;;;;5116056;28;20023;-71
2022/02/03 17:22:24;;;;;;;5.18;2.70;;;9.10;99.90;;;;;;5115923;28;20019;-66
2022/02/03 17:27:31;;;;;;;4.90;2.65;;;9.00;99.90;;;;;;5116108;28;20050;-69
2022/02/03 17:30:05;;;;;;;5.15;3.20;;;9.00;99.90;;;;;;5115397;28;20027;-68
2022/02/03 18:37:11;;;;;;;7.63;3.72;;;8.80;99.90;;;;;;5115085;28;20079;-71
2022/02/03 18:50:51;;;;;;;5.57;2.97;;;8.70;99.90;;;;;;5115014;28;20019;-71
2022/02/03 18:53:24;;;;;;;7.53;3.55;;;8.70;99.90;;;;;;5112927;28;20035;-67
2022/02/03 18:56:05;;;;;;;6.20;3.92;;;8.70;99.90;;;;;;5114628;28;20012;-67
2022/02/03 18:58:55;;;;;;;4.90;3.55;;;8.70;99.90;;;;;;5114403;27;20080;-67
2022/02/03 20:08:37;;;;;;;7.43;4.38;;;8.70;99.90;;;;;;5117930;28;20110;-67
2022/02/03 20:11:02;;;;;;;6.28;4.32;;;8.60;99.90;;;;;;5116932;27;20027;-66
2022/02/03 20:13:28;;;;;;;7.40;4.27;;;8.50;99.90;;;;;;5117869;28;20028;-67
2022/02/03 20:15:54;;;;;;;5.63;3.77;;;8.60;99.90;;;;;;5117043;28;20028;-66
2022/02/03 20:18:21;;;;;;;7.35;4.45;;;8.50;99.90;;;;;;5116724;27;20103;-67
2022/02/03 20:20:47;;;;;;;6.90;4.45;;;8.50;99.90;;;;;;5115399;28;20023;-67
2022/02/03 20:23:16;;;;;;;8.98;5.07;;;8.50;99.90;;;;;;5117076;28;20015;-66
2022/02/03 20:25:50;;;;;;;8.38;5.22;;;8.50;99.90;;;;;;5116145;28;20043;-67
2022/02/03 20:28:15;;;;;;;9.43;5.25;;;8.50;99.90;;;;;;5117430;28;20498;-68
2022/02/03 20:30:41;;;;;;;10.70;5.93;;;8.40;99.90;;;;;;5115522;28;20028;-67
2022/02/03 20:33:06;;;;;;;10.13;5.30;;;8.40;99.90;;;;;;5115261;28;20023;-66
2022/02/03 20:35:32;;;;;;;10.03;5.63;;;8.40;99.90;;;;;;5120662;28;20028;-67
2022/02/03 20:37:58;;;;;;;8.77;4.80;;;8.40;99.90;;;;;;5121313;28;20426;-67
2022/02/03 20:40:24;;;;;;;7.28;4.82;;;8.40;99.90;;;;;;5116814;28;20024;-67
2022/02/03 20:42:50;;;;;;;9.00;5.30;;;8.40;99.90;;;;;;5116421;28;20015;-67
2022/02/03 20:45:15;;;;;;;6.40;4.32;;;8.40;99.90;;;;;;5115936;28;20095;-67
2022/02/03 20:47:41;;;;;;;7.63;4.43;;;8.40;99.90;;;;;;5116589;28;20140;-66
2022/02/03 20:50:09;;;;;;;9.13;4.97;;;8.40;99.90;;;;;;5115870;28;20528;-66
2022/02/03 20:52:36;;;;;;;6.78;4.63;;;8.40;99.90;;;;;;5114604;28;20161;-66
2022/02/03 20:55:02;;;;;;;6.10;4.30;;;8.40;99.90;;;;;;5116406;28;20583;-67
2022/02/03 20:57:28;;;;;;;8.70;4.38;;;8.40;99.90;;;;;;5116281;28;20399;-66
2022/02/03 21:00:04;;;;;;;6.37;4.50;;;8.30;99.90;;;;;;5116568;27;20023;-67
2022/02/03 21:07:24;;;;;;;9.47;4.33;;;8.30;99.90;;;;;;5116477;28;20055;-66
2022/02/03 21:09:49;;;;;;;5.90;4.47;;;8.30;99.90;;;;;;5114437;28;20130;-67
2022/02/03 21:12:16;;;;;;;8.17;5.07;;;8.30;99.90;;;;;;5115916;28;20484;-67
2022/02/03 21:14:41;;;;;;;7.95;4.63;;;8.20;99.90;;;;;;5115629;28;20496;-67
2022/02/03 21:17:08;;;;;;;10.50;5.13;;;8.20;99.90;;;;;;5115755;28;20038;-66
2022/02/03 21:19:33;;;;;;;6.57;4.40;;;8.20;99.90;;;;;;5116054;28;20019;-67
2022/02/03 21:21:59;;;;;;;5.50;3.55;;;8.20;99.90;;;;;;5115758;28;20031;-67
2022/02/03 21:24:25;;;;;;;6.63;4.37;;;8.20;99.90;;;;;;5115618;28;20477;-67
2022/02/03 21:26:53;;;;;;;8.60;4.13;;;8.20;99.90;;;;;;5115629;28;20019;-66
2022/02/03 21:29:19;;;;;;;7.70;4.72;;;8.20;99.90;;;;;;5115660;28;20033;-66
2022/02/03 21:31:45;;;;;;;7.13;4.07;;;8.20;99.90;;;;;;5114385;28;20039;-66
2022/02/03 21:34:15;;;;;;;7.33;4.40;;;8.30;99.90;;;;;;5118415;28;20024;-67
2022/02/03 21:36:42;;;;;;;7.88;4.07;;;8.30;99.90;;;;;;5121153;28;20030;-67
2022/02/03 21:39:08;;;;;;;7.90;4.47;;;8.30;99.90;;;;;;5115578;28;20020;-67
2022/02/03 21:41:34;;;;;;;6.80;4.35;;;8.30;99.90;;;;;;5115200;28;20020;-66
2022/02/03 21:44:00;;;;;;;6.80;4.40;;;8.30;99.90;;;;;;5115305;28;20027;-68
2022/02/03 21:46:25;;;;;;;6.80;3.87;;;8.30;99.90;;;;;;5115040;28;20049;-67
2022/02/03 21:48:51;;;;;;;8.70;4.10;;;8.30;99.90;;;;;;5113499;28;20600;-67
2022/02/03 21:51:22;;;;;;;6.57;4.43;;;8.30;99.90;;;;;;5114870;28;20026;-66
2022/02/03 21:53:48;;;;;;;7.90;3.88;;;8.30;99.90;;;;;;5114640;28;20352;-66
2022/02/03 21:56:15;;;;;;;4.95;3.88;;;8.30;99.90;;;;;;5115167;28;20436;-67
2022/02/03 21:58:41;;;;;;;6.03;3.67;;;8.30;99.90;;;;;;5114389;28;20038;-66
2022/02/03 22:01:07;;;;;;;14.10;3.90;;;8.30;99.90;;;;;;5113890;28;20024;-67
2022/02/03 22:03:32;;;;;;;5.78;3.92;;;8.30;99.90;;;;;;5114644;28;20362;-67
2022/02/03 22:05:59;;;;;;;6.43;3.90;;;8.30;99.90;;;;;;5114759;28;20059;-68
2022/02/03 22:08:27;;;;;;;5.07;3.85;;;8.20;99.90;;;;;;5114614;28;20098;-67
2022/02/03 22:10:57;;;;;;;7.13;4.53;;;8.20;99.90;;;;;;5113185;28;20028;-66
2022/02/03 22:13:32;;;;;;;5.18;3.95;;;8.20;99.90;;;;;;5113092;28;20027;-66
2022/02/03 22:15:57;;;;;;;6.20;4.35;;;8.20;99.90;;;;;;5114538;28;20024;-66
2022/02/03 22:18:23;;;;;;;6.13;4.30;;;8.20;99.90;;;;;;5114343;28;20361;-66
2022/02/03 22:21:01;;;;;;;5.87;3.57;;;8.20;99.90;;;;;;5114410;28;20027;-67
2022/02/03 22:44:55;;;;;;;4.43;3.08;;;8.20;99.90;;;;;;5113951;28;20030;-66
2022/02/03 22:49:46;;;;;;;9.27;3.28;;;8.10;99.90;;;;;;5114108;28;20055;-66
2022/02/03 22:52:13;;;;;;;5.13;3.23;;;8.10;99.90;;;;;;5112708;28;20063;-66
2022/02/03 22:54:39;;;;;;;6.30;3.22;;;8.10;99.90;;;;;;5113889;28;20460;-67
2022/02/03 22:57:05;;;;;;;4.55;3.30;;;8.00;99.90;;;;;;5114201;28;20026;-66
2022/02/03 23:02:04;;;;;;;6.40;3.65;;;8.00;99.90;;;;;;5114374;28;20503;-65
2022/02/03 23:04:30;;;;;;;5.40;3.63;;;8.00;99.90;;;;;;5112363;28;20019;-66
2022/02/03 23:07:05;;;;;;;6.32;3.78;;;8.00;99.90;;;;;;5113596;28;20027;-65
2022/02/03 23:09:53;;;;;;;5.00;3.50;;;8.00;99.90;;;;;;5113792;28;20055;-66
2022/02/03 23:12:41;;;;;;;4.30;3.13;;;8.00;99.90;;;;;;5114512;28;20384;-66
2022/02/03 23:20:20;;;;;;;7.63;3.35;;;7.90;99.90;;;;;;5117888;28;20088;-67
2022/02/03 23:22:46;;;;;;;5.78;3.00;;;7.90;99.90;;;;;;5117799;28;20034;-67
2022/02/03 23:25:16;;;;;;;5.15;2.90;;;7.90;99.90;;;;;;5118654;28;20027;-66
2022/02/03 23:30:22;;;;;;;5.00;3.58;;;7.80;99.90;;;;;;5118711;27;20110;-66
2022/02/03 23:32:49;;;;;;;5.53;3.85;;;7.80;99.90;;;;;;5116232;28;20114;-66
2022/02/03 23:35:19;;;;;;;6.43;2.90;;;7.80;99.90;;;;;;5117320;28;20364;-66
2022/02/03 23:37:51;;;;;;;7.18;3.78;;;7.70;99.90;;;;;;5117522;28;20457;-67
